sensor_id;sensor_type;location;lat;lon;timestamp;temperature;humidity
8945;DHT22;4507;40.232;29.132;2023-07-20T00:02:15;25.20;64.20
8945;DHT22;4507;40.232;29.132;2023-07-20T00:04:44;25.20;64.20
8945;DHT22;4507;40.232;29.132;2023-07-20T00:07:13;25.30;64.40
8945;DHT22;4507;40.232;29.132;2023-07-20T00:09:42;25.30;64.50
8945;DHT22;4507;40.232;29.132;2023-07-20T00:12:14;25.40;64.60
8945;DHT22;4507;40.232;29.132;2023-07-20T00:14:45;25.30;64.50
8945;DHT22;4507;40.232;29.132;2023-07-20T00:17:17;25.30;64.60
8945;DHT22;4507;40.232;29.132;2023-07-20T00:19:49;25.20;64.60
8945;DHT22;4507;40.232;29.132;2023-07-20T00:22:34;25.20;64.80
8945;DHT22;4507;40.232;29.132;2023-07-20T00:25:16;25.20;65.00
8945;DHT22;4507;40.232;29.132;2023-07-20T00:27:45;25.10;65.10
8945;DHT22;4507;40.232;29.132;2023-07-20T00:30:14;25.10;65.30
8945;DHT22;4507;40.232;29.132;2023-07-20T00:32:45;25.10;65.60
8945;DHT22;4507;40.232;29.132;2023-07-20T00:35:15;24.90;65.70
8945;DHT22;4507;40.232;29.132;2023-07-20T00:37:44;24.90;65.80
8945;DHT22;4507;40.232;29.132;2023-07-20T00:40:21;24.90;65.90
8945;DHT22;4507;40.232;29.132;2023-07-20T00:42:50;24.80;65.90
8945;DHT22;4507;40.232;29.132;2023-07-20T00:45:23;24.80;66.20
8945;DHT22;4507;40.232;29.132;2023-07-20T00:47:55;24.80;66.40
8945;DHT22;4507;40.232;29.132;2023-07-20T00:50:26;24.80;66.50
8945;DHT22;4507;40.232;29.132;2023-07-20T00:52:55;24.70;66.50
8945;DHT22;4507;40.232;29.132;2023-07-20T00:55:29;24.70;66.60
8945;DHT22;4507;40.232;29.132;2023-07-20T00:57:59;24.70;66.80
8945;DHT22;4507;40.232;29.132;2023-07-20T01:00:29;24.60;67.00
8945;DHT22;4507;40.232;29.132;2023-07-20T01:03:18;24.60;67.10
8945;DHT22;4507;40.232;29.132;2023-07-20T01:06:14;24.50;67.30
8945;DHT22;4507;40.232;29.132;2023-07-20T01:08:50;24.40;67.40
8945;DHT22;4507;40.232;29.132;2023-07-20T01:11:28;24.40;67.60
8945;DHT22;4507;40.232;29.132;2023-07-20T01:14:00;24.30;67.80
8945;DHT22;4507;40.232;29.132;2023-07-20T01:16:30;24.20;68.10
8945;DHT22;4507;40.232;29.132;2023-07-20T01:19:01;24.20;68.50
8945;DHT22;4507;40.232;29.132;2023-07-20T01:21:36;24.20;68.90
8945;DHT22;4507;40.232;29.132;2023-07-20T01:27:42;24.10;69.20
8945;DHT22;4507;40.232;29.132;2023-07-20T01:30:34;24.00;69.30
8945;DHT22;4507;40.232;29.132;2023-07-20T01:33:07;24.00;69.50
8945;DHT22;4507;40.232;29.132;2023-07-20T01:35:38;23.90;69.60
8945;DHT22;4507;40.232;29.132;2023-07-20T01:38:08;23.80;69.80
8945;DHT22;4507;40.232;29.132;2023-07-20T01:40:39;23.80;70.10
8945;DHT22;4507;40.232;29.132;2023-07-20T01:43:09;23.70;70.20
8945;DHT22;4507;40.232;29.132;2023-07-20T01:45:38;23.70;70.40
8945;DHT22;4507;40.232;29.132;2023-07-20T01:48:10;23.70;70.50
8945;DHT22;4507;40.232;29.132;2023-07-20T01:50:39;23.60;70.50
8945;DHT22;4507;40.232;29.132;2023-07-20T01:53:08;23.50;70.70
8945;DHT22;4507;40.232;29.132;2023-07-20T01:55:38;23.50;70.90
8945;DHT22;4507;40.232;29.132;2023-07-20T01:58:07;23.40;71.10
8945;DHT22;4507;40.232;29.132;2023-07-20T02:00:37;23.40;71.40
8945;DHT22;4507;40.232;29.132;2023-07-20T02:03:08;23.30;71.50
8945;DHT22;4507;40.232;29.132;2023-07-20T02:05:39;23.30;71.70
8945;DHT22;4507;40.232;29.132;2023-07-20T02:08:11;23.20;71.90
8945;DHT22;4507;40.232;29.132;2023-07-20T02:10:40;23.20;72.10
8945;DHT22;4507;40.232;29.132;2023-07-20T02:13:09;23.10;72.20
8945;DHT22;4507;40.232;29.132;2023-07-20T02:15:39;23.10;72.40
8945;DHT22;4507;40.232;29.132;2023-07-20T02:18:10;23.00;72.50
8945;DHT22;4507;40.232;29.132;2023-07-20T02:20:41;23.00;72.70
8945;DHT22;4507;40.232;29.132;2023-07-20T02:23:10;23.00;73.00
8945;DHT22;4507;40.232;29.132;2023-07-20T02:25:41;22.90;73.20
8945;DHT22;4507;40.232;29.132;2023-07-20T02:28:13;22.90;73.50
8945;DHT22;4507;40.232;29.132;2023-07-20T02:30:42;22.90;73.80
8945;DHT22;4507;40.232;29.132;2023-07-20T02:33:13;22.90;73.90
8945;DHT22;4507;40.232;29.132;2023-07-20T02:35:42;22.80;73.80
8945;DHT22;4507;40.232;29.132;2023-07-20T02:38:12;22.80;73.70
8945;DHT22;4507;40.232;29.132;2023-07-20T02:40:41;22.80;73.60
8945;DHT22;4507;40.232;29.132;2023-07-20T02:43:10;22.80;73.60
8945;DHT22;4507;40.232;29.132;2023-07-20T02:45:52;22.80;73.70
8945;DHT22;4507;40.232;29.132;2023-07-20T02:48:43;22.80;73.80
8945;DHT22;4507;40.232;29.132;2023-07-20T02:51:13;22.80;73.90
8945;DHT22;4507;40.232;29.132;2023-07-20T02:53:42;22.80;73.90
8945;DHT22;4507;40.232;29.132;2023-07-20T02:56:11;22.80;74.10
8945;DHT22;4507;40.232;29.132;2023-07-20T02:58:41;22.90;74.20
8945;DHT22;4507;40.232;29.132;2023-07-20T03:01:13;22.90;74.10
8945;DHT22;4507;40.232;29.132;2023-07-20T03:03:45;22.90;74.20
8945;DHT22;4507;40.232;29.132;2023-07-20T03:06:14;22.90;74.30
8945;DHT22;4507;40.232;29.132;2023-07-20T03:08:44;22.90;74.40
8945;DHT22;4507;40.232;29.132;2023-07-20T03:11:16;23.00;74.60
8945;DHT22;4507;40.232;29.132;2023-07-20T03:13:46;23.00;74.60
8945;DHT22;4507;40.232;29.132;2023-07-20T03:16:18;23.00;74.60
8945;DHT22;4507;40.232;29.132;2023-07-20T03:18:51;23.00;74.70
8945;DHT22;4507;40.232;29.132;2023-07-20T03:21:20;23.00;74.80
8945;DHT22;4507;40.232;29.132;2023-07-20T03:23:50;23.00;74.60
8945;DHT22;4507;40.232;29.132;2023-07-20T03:26:19;23.00;74.50
8945;DHT22;4507;40.232;29.132;2023-07-20T03:28:49;23.00;74.50
8945;DHT22;4507;40.232;29.132;2023-07-20T03:31:21;23.00;74.50
8945;DHT22;4507;40.232;29.132;2023-07-20T03:33:52;23.00;74.60
8945;DHT22;4507;40.232;29.132;2023-07-20T03:36:21;23.10;74.70
8945;DHT22;4507;40.232;29.132;2023-07-20T03:38:51;23.10;74.80
8945;DHT22;4507;40.232;29.132;2023-07-20T03:41:21;23.10;75.00
8945;DHT22;4507;40.232;29.132;2023-07-20T03:43:50;23.10;75.00
8945;DHT22;4507;40.232;29.132;2023-07-20T03:46:20;23.20;75.10
8945;DHT22;4507;40.232;29.132;2023-07-20T03:48:51;23.20;75.20
8945;DHT22;4507;40.232;29.132;2023-07-20T03:51:21;23.30;75.20
8945;DHT22;4507;40.232;29.132;2023-07-20T03:53:50;23.30;75.10
8945;DHT22;4507;40.232;29.132;2023-07-20T03:56:19;23.30;75.20
8945;DHT22;4507;40.232;29.132;2023-07-20T03:58:49;23.40;75.30
8945;DHT22;4507;40.232;29.132;2023-07-20T04:01:19;23.40;75.10
8945;DHT22;4507;40.232;29.132;2023-07-20T04:03:48;23.40;75.10
8945;DHT22;4507;40.232;29.132;2023-07-20T04:06:19;23.40;75.20
8945;DHT22;4507;40.232;29.132;2023-07-20T04:08:48;23.50;75.30
8945;DHT22;4507;40.232;29.132;2023-07-20T04:11:17;23.50;75.20
8945;DHT22;4507;40.232;29.132;2023-07-20T04:13:47;23.50;75.40
8945;DHT22;4507;40.232;29.132;2023-07-20T04:16:16;23.60;75.60
8945;DHT22;4507;40.232;29.132;2023-07-20T04:18:49;23.60;75.60
8945;DHT22;4507;40.232;29.132;2023-07-20T04:21:20;23.60;75.90
8945;DHT22;4507;40.232;29.132;2023-07-20T04:23:50;23.70;76.10
8945;DHT22;4507;40.232;29.132;2023-07-20T04:26:19;23.70;76.20
8945;DHT22;4507;40.232;29.132;2023-07-20T04:28:49;23.80;76.40
8945;DHT22;4507;40.232;29.132;2023-07-20T04:31:33;23.80;76.30
8945;DHT22;4507;40.232;29.132;2023-07-20T04:34:03;23.90;76.60
8945;DHT22;4507;40.232;29.132;2023-07-20T04:36:36;23.90;76.70
8945;DHT22;4507;40.232;29.132;2023-07-20T04:39:05;24.00;76.90
8945;DHT22;4507;40.232;29.132;2023-07-20T04:41:52;24.10;76.90
8945;DHT22;4507;40.232;29.132;2023-07-20T04:44:21;24.20;76.90
8945;DHT22;4507;40.232;29.132;2023-07-20T04:46:50;24.20;76.70
8945;DHT22;4507;40.232;29.132;2023-07-20T04:49:19;24.30;76.70
8945;DHT22;4507;40.232;29.132;2023-07-20T04:51:50;24.40;76.80
8945;DHT22;4507;40.232;29.132;2023-07-20T04:54:21;24.40;76.80
8945;DHT22;4507;40.232;29.132;2023-07-20T04:56:50;24.50;76.80
8945;DHT22;4507;40.232;29.132;2023-07-20T04:59:20;24.50;76.60
8945;DHT22;4507;40.232;29.132;2023-07-20T05:01:49;24.70;76.70
8945;DHT22;4507;40.232;29.132;2023-07-20T05:04:19;24.70;76.60
8945;DHT22;4507;40.232;29.132;2023-07-20T05:06:50;24.70;76.50
8945;DHT22;4507;40.232;29.132;2023-07-20T05:09:38;24.80;76.60
8945;DHT22;4507;40.232;29.132;2023-07-20T05:12:08;24.90;76.00
8945;DHT22;4507;40.232;29.132;2023-07-20T05:14:40;24.90;75.70
8945;DHT22;4507;40.232;29.132;2023-07-20T05:17:09;24.90;75.40
8945;DHT22;4507;40.232;29.132;2023-07-20T05:19:38;25.00;75.20
8945;DHT22;4507;40.232;29.132;2023-07-20T05:22:13;25.10;74.90
8945;DHT22;4507;40.232;29.132;2023-07-20T05:24:45;25.20;74.70
8945;DHT22;4507;40.232;29.132;2023-07-20T05:27:14;25.30;74.20
8945;DHT22;4507;40.232;29.132;2023-07-20T05:29:44;25.40;74.20
8945;DHT22;4507;40.232;29.132;2023-07-20T05:32:13;25.50;74.20
8945;DHT22;4507;40.232;29.132;2023-07-20T05:34:42;25.60;73.90
8945;DHT22;4507;40.232;29.132;2023-07-20T05:37:13;25.70;74.60
8945;DHT22;4507;40.232;29.132;2023-07-20T05:39:42;25.70;73.60
8945;DHT22;4507;40.232;29.132;2023-07-20T05:42:11;25.80;73.50
8945;DHT22;4507;40.232;29.132;2023-07-20T05:44:41;25.90;73.30
8945;DHT22;4507;40.232;29.132;2023-07-20T05:47:10;26.00;73.10
8945;DHT22;4507;40.232;29.132;2023-07-20T05:49:39;26.00;72.40
8945;DHT22;4507;40.232;29.132;2023-07-20T05:52:08;26.10;72.20
8945;DHT22;4507;40.232;29.132;2023-07-20T05:54:39;26.10;71.90
8945;DHT22;4507;40.232;29.132;2023-07-20T05:57:09;26.20;71.90
8945;DHT22;4507;40.232;29.132;2023-07-20T05:59:39;26.30;71.80
8945;DHT22;4507;40.232;29.132;2023-07-20T06:02:11;26.40;71.60
8945;DHT22;4507;40.232;29.132;2023-07-20T06:04:40;26.40;71.50
8945;DHT22;4507;40.232;29.132;2023-07-20T06:07:09;26.50;71.20
8945;DHT22;4507;40.232;29.132;2023-07-20T06:09:40;26.60;71.30
8945;DHT22;4507;40.232;29.132;2023-07-20T06:12:09;26.70;71.40
8945;DHT22;4507;40.232;29.132;2023-07-20T06:14:39;26.80;70.60
8945;DHT22;4507;40.232;29.132;2023-07-20T06:17:08;26.90;70.00
8945;DHT22;4507;40.232;29.132;2023-07-20T06:19:37;27.00;69.40
8945;DHT22;4507;40.232;29.132;2023-07-20T06:22:06;27.20;68.50
8945;DHT22;4507;40.232;29.132;2023-07-20T06:24:38;27.30;67.80
8945;DHT22;4507;40.232;29.132;2023-07-20T06:27:08;27.40;67.40
8945;DHT22;4507;40.232;29.132;2023-07-20T06:29:37;27.50;66.40
8945;DHT22;4507;40.232;29.132;2023-07-20T06:32:07;27.60;66.10
8945;DHT22;4507;40.232;29.132;2023-07-20T06:34:36;27.70;64.80
8945;DHT22;4507;40.232;29.132;2023-07-20T06:37:10;27.80;64.40
8945;DHT22;4507;40.232;29.132;2023-07-20T06:39:39;27.90;64.50
8945;DHT22;4507;40.232;29.132;2023-07-20T06:42:12;28.00;64.50
8945;DHT22;4507;40.232;29.132;2023-07-20T06:44:41;28.10;64.50
8945;DHT22;4507;40.232;29.132;2023-07-20T06:47:10;28.10;64.30
8945;DHT22;4507;40.232;29.132;2023-07-20T06:49:39;28.20;64.20
8945;DHT22;4507;40.232;29.132;2023-07-20T06:52:11;28.30;64.20
8945;DHT22;4507;40.232;29.132;2023-07-20T06:54:40;28.40;63.50
8945;DHT22;4507;40.232;29.132;2023-07-20T06:57:14;28.50;63.80
8945;DHT22;4507;40.232;29.132;2023-07-20T07:00:06;28.70;64.20
8945;DHT22;4507;40.232;29.132;2023-07-20T07:02:36;28.80;64.20
8945;DHT22;4507;40.232;29.132;2023-07-20T07:05:05;28.90;63.70
8945;DHT22;4507;40.232;29.132;2023-07-20T07:07:37;29.00;63.70
8945;DHT22;4507;40.232;29.132;2023-07-20T07:10:13;29.10;63.50
8945;DHT22;4507;40.232;29.132;2023-07-20T07:13:00;29.20;63.30
8945;DHT22;4507;40.232;29.132;2023-07-20T07:15:38;29.30;62.80
8945;DHT22;4507;40.232;29.132;2023-07-20T07:18:08;29.30;62.40
8945;DHT22;4507;40.232;29.132;2023-07-20T07:20:41;29.40;62.10
8945;DHT22;4507;40.232;29.132;2023-07-20T07:23:10;29.40;62.20
8945;DHT22;4507;40.232;29.132;2023-07-20T07:25:39;29.50;62.10
8945;DHT22;4507;40.232;29.132;2023-07-20T07:28:09;29.60;61.90
8945;DHT22;4507;40.232;29.132;2023-07-20T07:30:38;29.70;61.80
8945;DHT22;4507;40.232;29.132;2023-07-20T07:33:07;29.70;61.80
8945;DHT22;4507;40.232;29.132;2023-07-20T07:35:38;29.80;62.20
8945;DHT22;4507;40.232;29.132;2023-07-20T07:38:07;29.90;61.40
8945;DHT22;4507;40.232;29.132;2023-07-20T07:40:58;30.00;61.30
8945;DHT22;4507;40.232;29.132;2023-07-20T07:43:28;30.00;60.90
8945;DHT22;4507;40.232;29.132;2023-07-20T07:45:58;30.10;61.50
8945;DHT22;4507;40.232;29.132;2023-07-20T07:48:28;30.20;59.30
8945;DHT22;4507;40.232;29.132;2023-07-20T07:50:56;30.30;58.60
8945;DHT22;4507;40.232;29.132;2023-07-20T07:53:28;30.40;58.60
8945;DHT22;4507;40.232;29.132;2023-07-20T07:56:03;30.50;57.10
8945;DHT22;4507;40.232;29.132;2023-07-20T07:58:33;30.60;56.30
8945;DHT22;4507;40.232;29.132;2023-07-20T08:01:02;30.70;56.60
8945;DHT22;4507;40.232;29.132;2023-07-20T08:03:31;30.70;55.60
8945;DHT22;4507;40.232;29.132;2023-07-20T08:06:00;30.90;56.10
8945;DHT22;4507;40.232;29.132;2023-07-20T08:08:32;31.00;55.30
8945;DHT22;4507;40.232;29.132;2023-07-20T08:11:01;31.10;55.00
8945;DHT22;4507;40.232;29.132;2023-07-20T08:13:35;31.20;54.90
8945;DHT22;4507;40.232;29.132;2023-07-20T08:16:04;31.30;54.80
8945;DHT22;4507;40.232;29.132;2023-07-20T08:18:33;31.40;53.70
8945;DHT22;4507;40.232;29.132;2023-07-20T08:21:02;31.60;53.90
8945;DHT22;4507;40.232;29.132;2023-07-20T08:23:36;31.70;53.00
8945;DHT22;4507;40.232;29.132;2023-07-20T08:26:07;31.80;53.40
8945;DHT22;4507;40.232;29.132;2023-07-20T08:28:37;31.90;53.40
8945;DHT22;4507;40.232;29.132;2023-07-20T08:31:06;32.00;53.40
8945;DHT22;4507;40.232;29.132;2023-07-20T08:33:36;32.20;53.40
8945;DHT22;4507;40.232;29.132;2023-07-20T08:36:05;32.20;52.80
8945;DHT22;4507;40.232;29.132;2023-07-20T08:38:41;32.40;52.40
8945;DHT22;4507;40.232;29.132;2023-07-20T08:41:18;32.50;52.60
8945;DHT22;4507;40.232;29.132;2023-07-20T08:43:55;32.60;52.20
8945;DHT22;4507;40.232;29.132;2023-07-20T08:46:27;32.70;52.40
8945;DHT22;4507;40.232;29.132;2023-07-20T08:48:57;32.90;52.20
8945;DHT22;4507;40.232;29.132;2023-07-20T08:51:31;33.00;52.10
8945;DHT22;4507;40.232;29.132;2023-07-20T08:54:01;33.10;51.30
8945;DHT22;4507;40.232;29.132;2023-07-20T08:56:31;33.20;51.50
8945;DHT22;4507;40.232;29.132;2023-07-20T08:59:04;33.30;51.80
8945;DHT22;4507;40.232;29.132;2023-07-20T09:01:35;33.30;51.60
8945;DHT22;4507;40.232;29.132;2023-07-20T09:04:05;33.40;50.80
8945;DHT22;4507;40.232;29.132;2023-07-20T09:06:35;33.50;51.30
8945;DHT22;4507;40.232;29.132;2023-07-20T09:09:04;33.60;50.40
8945;DHT22;4507;40.232;29.132;2023-07-20T09:11:33;33.70;50.40
8945;DHT22;4507;40.232;29.132;2023-07-20T09:14:05;33.80;50.90
8945;DHT22;4507;40.232;29.132;2023-07-20T09:16:47;34.00;50.40
8945;DHT22;4507;40.232;29.132;2023-07-20T09:19:35;34.00;50.60
8945;DHT22;4507;40.232;29.132;2023-07-20T09:22:05;34.10;50.80
8945;DHT22;4507;40.232;29.132;2023-07-20T09:24:35;34.20;50.60
8945;DHT22;4507;40.232;29.132;2023-07-20T09:27:04;34.30;50.30
8945;DHT22;4507;40.232;29.132;2023-07-20T09:29:34;34.30;50.70
8945;DHT22;4507;40.232;29.132;2023-07-20T09:32:04;34.40;50.00
8945;DHT22;4507;40.232;29.132;2023-07-20T09:34:33;34.60;50.10
8945;DHT22;4507;40.232;29.132;2023-07-20T09:37:07;34.60;49.40
8945;DHT22;4507;40.232;29.132;2023-07-20T09:39:42;34.70;49.00
8945;DHT22;4507;40.232;29.132;2023-07-20T09:42:15;34.70;49.20
8945;DHT22;4507;40.232;29.132;2023-07-20T09:45:10;34.80;49.50
8945;DHT22;4507;40.232;29.132;2023-07-20T09:47:39;34.90;48.70
8945;DHT22;4507;40.232;29.132;2023-07-20T09:50:09;35.00;48.50
8945;DHT22;4507;40.232;29.132;2023-07-20T09:52:44;35.00;48.40
8945;DHT22;4507;40.232;29.132;2023-07-20T09:55:36;35.10;48.40
8945;DHT22;4507;40.232;29.132;2023-07-20T09:58:08;35.20;48.50
8945;DHT22;4507;40.232;29.132;2023-07-20T10:00:39;35.30;48.30
8945;DHT22;4507;40.232;29.132;2023-07-20T10:03:32;35.40;47.80
8945;DHT22;4507;40.232;29.132;2023-07-20T10:06:05;35.50;48.10
8945;DHT22;4507;40.232;29.132;2023-07-20T10:08:38;35.70;46.30
8945;DHT22;4507;40.232;29.132;2023-07-20T10:11:12;35.80;46.60
8945;DHT22;4507;40.232;29.132;2023-07-20T10:13:44;35.90;46.50
8945;DHT22;4507;40.232;29.132;2023-07-20T10:16:22;36.00;46.20
8945;DHT22;4507;40.232;29.132;2023-07-20T10:19:02;36.10;45.80
8945;DHT22;4507;40.232;29.132;2023-07-20T10:21:33;36.20;44.80
8945;DHT22;4507;40.232;29.132;2023-07-20T10:24:25;36.30;43.40
8945;DHT22;4507;40.232;29.132;2023-07-20T10:26:55;36.40;42.70
8945;DHT22;4507;40.232;29.132;2023-07-20T10:29:25;36.50;41.60
8945;DHT22;4507;40.232;29.132;2023-07-20T10:31:58;36.60;41.30
8945;DHT22;4507;40.232;29.132;2023-07-20T10:34:28;36.70;41.30
8945;DHT22;4507;40.232;29.132;2023-07-20T10:36:57;36.70;41.30
8945;DHT22;4507;40.232;29.132;2023-07-20T10:39:27;36.70;40.60
8945;DHT22;4507;40.232;29.132;2023-07-20T10:42:01;36.80;40.10
8945;DHT22;4507;40.232;29.132;2023-07-20T10:44:31;36.80;39.30
8945;DHT22;4507;40.232;29.132;2023-07-20T10:47:02;37.00;38.10
8945;DHT22;4507;40.232;29.132;2023-07-20T10:49:33;37.10;37.30
8945;DHT22;4507;40.232;29.132;2023-07-20T10:52:05;37.30;37.70
8945;DHT22;4507;40.232;29.132;2023-07-20T10:54:35;37.40;37.60
8945;DHT22;4507;40.232;29.132;2023-07-20T10:57:28;37.50;38.50
8945;DHT22;4507;40.232;29.132;2023-07-20T11:00:09;37.70;38.80
8945;DHT22;4507;40.232;29.132;2023-07-20T11:02:45;37.80;39.00
8945;DHT22;4507;40.232;29.132;2023-07-20T11:05:34;37.80;39.50
8945;DHT22;4507;40.232;29.132;2023-07-20T11:08:05;38.00;41.20
8945;DHT22;4507;40.232;29.132;2023-07-20T11:10:35;38.00;41.80
8945;DHT22;4507;40.232;29.132;2023-07-20T11:13:23;38.20;41.90
8945;DHT22;4507;40.232;29.132;2023-07-20T11:16:04;38.20;42.20
8945;DHT22;4507;40.232;29.132;2023-07-20T11:18:35;38.20;42.70
8945;DHT22;4507;40.232;29.132;2023-07-20T11:21:12;38.20;42.90
8945;DHT22;4507;40.232;29.132;2023-07-20T11:23:48;38.20;43.10
8945;DHT22;4507;40.232;29.132;2023-07-20T11:26:17;38.10;43.30
8945;DHT22;4507;40.232;29.132;2023-07-20T11:28:49;38.10;43.30
8945;DHT22;4507;40.232;29.132;2023-07-20T11:31:19;38.10;42.70
8945;DHT22;4507;40.232;29.132;2023-07-20T11:33:50;38.20;41.90
8945;DHT22;4507;40.232;29.132;2023-07-20T11:36:19;38.30;42.00
8945;DHT22;4507;40.232;29.132;2023-07-20T11:38:51;38.40;42.10
8945;DHT22;4507;40.232;29.132;2023-07-20T11:41:20;38.50;41.80
8945;DHT22;4507;40.232;29.132;2023-07-20T11:43:49;38.60;41.60
8945;DHT22;4507;40.232;29.132;2023-07-20T11:46:18;38.70;41.50
8945;DHT22;4507;40.232;29.132;2023-07-20T11:48:49;38.80;41.30
8945;DHT22;4507;40.232;29.132;2023-07-20T11:51:24;38.80;40.90
8945;DHT22;4507;40.232;29.132;2023-07-20T11:53:53;38.80;40.60
8945;DHT22;4507;40.232;29.132;2023-07-20T11:56:23;38.80;40.70
8945;DHT22;4507;40.232;29.132;2023-07-20T11:58:55;38.90;40.60
8945;DHT22;4507;40.232;29.132;2023-07-20T12:01:27;38.80;40.90
8945;DHT22;4507;40.232;29.132;2023-07-20T12:04:01;38.90;41.20
8945;DHT22;4507;40.232;29.132;2023-07-20T12:06:34;39.00;41.10
8945;DHT22;4507;40.232;29.132;2023-07-20T12:09:03;39.10;41.00
8945;DHT22;4507;40.232;29.132;2023-07-20T12:11:35;39.10;40.80
8945;DHT22;4507;40.232;29.132;2023-07-20T12:14:07;39.10;40.20
8945;DHT22;4507;40.232;29.132;2023-07-20T12:16:44;39.00;40.50
8945;DHT22;4507;40.232;29.132;2023-07-20T12:19:25;39.00;40.30
8945;DHT22;4507;40.232;29.132;2023-07-20T12:21:57;39.00;40.30
8945;DHT22;4507;40.232;29.132;2023-07-20T12:24:27;38.90;40.00
8945;DHT22;4507;40.232;29.132;2023-07-20T12:26:57;38.80;40.10
8945;DHT22;4507;40.232;29.132;2023-07-20T12:29:27;38.80;39.70
8945;DHT22;4507;40.232;29.132;2023-07-20T12:31:56;38.80;39.60
8945;DHT22;4507;40.232;29.132;2023-07-20T12:34:26;38.80;39.60
8945;DHT22;4507;40.232;29.132;2023-07-20T12:36:57;38.80;39.80
8945;DHT22;4507;40.232;29.132;2023-07-20T12:39:31;38.80;39.70
8945;DHT22;4507;40.232;29.132;2023-07-20T12:42:01;38.70;39.20
8945;DHT22;4507;40.232;29.132;2023-07-20T12:44:30;38.70;39.30
8945;DHT22;4507;40.232;29.132;2023-07-20T12:46:59;38.60;39.00
8945;DHT22;4507;40.232;29.132;2023-07-20T12:49:30;38.50;39.00
8945;DHT22;4507;40.232;29.132;2023-07-20T12:52:03;38.30;38.80
8945;DHT22;4507;40.232;29.132;2023-07-20T12:54:32;38.10;39.00
8945;DHT22;4507;40.232;29.132;2023-07-20T12:57:03;37.90;38.90
8945;DHT22;4507;40.232;29.132;2023-07-20T12:59:35;37.70;39.50
8945;DHT22;4507;40.232;29.132;2023-07-20T13:02:07;37.60;39.80
8945;DHT22;4507;40.232;29.132;2023-07-20T13:04:42;37.50;39.70
8945;DHT22;4507;40.232;29.132;2023-07-20T13:07:11;37.30;39.80
8945;DHT22;4507;40.232;29.132;2023-07-20T13:09:43;37.30;40.20
8945;DHT22;4507;40.232;29.132;2023-07-20T13:12:12;37.20;40.80
8945;DHT22;4507;40.232;29.132;2023-07-20T13:14:43;37.20;40.50
8945;DHT22;4507;40.232;29.132;2023-07-20T13:17:12;37.20;40.40
8945;DHT22;4507;40.232;29.132;2023-07-20T13:19:44;37.20;40.20
8945;DHT22;4507;40.232;29.132;2023-07-20T13:22:14;37.20;40.30
8945;DHT22;4507;40.232;29.132;2023-07-20T13:24:45;37.30;40.40
8945;DHT22;4507;40.232;29.132;2023-07-20T13:27:17;37.30;40.40
8945;DHT22;4507;40.232;29.132;2023-07-20T13:29:46;37.30;40.80
8945;DHT22;4507;40.232;29.132;2023-07-20T13:32:16;37.40;41.10
8945;DHT22;4507;40.232;29.132;2023-07-20T13:34:46;37.40;40.40
8945;DHT22;4507;40.232;29.132;2023-07-20T13:37:16;37.50;40.30
8945;DHT22;4507;40.232;29.132;2023-07-20T13:39:45;37.50;40.70
8945;DHT22;4507;40.232;29.132;2023-07-20T13:42:14;37.50;40.10
8945;DHT22;4507;40.232;29.132;2023-07-20T13:44:45;37.50;40.10
8945;DHT22;4507;40.232;29.132;2023-07-20T13:47:15;37.50;40.40
8945;DHT22;4507;40.232;29.132;2023-07-20T13:49:48;37.50;41.00
8945;DHT22;4507;40.232;29.132;2023-07-20T13:52:30;37.50;40.50
8945;DHT22;4507;40.232;29.132;2023-07-20T13:55:05;37.50;40.60
8945;DHT22;4507;40.232;29.132;2023-07-20T13:57:34;37.40;40.10
8945;DHT22;4507;40.232;29.132;2023-07-20T14:00:03;37.40;40.30
8945;DHT22;4507;40.232;29.132;2023-07-20T14:02:38;37.30;40.10
8945;DHT22;4507;40.232;29.132;2023-07-20T14:05:12;37.20;40.00
8945;DHT22;4507;40.232;29.132;2023-07-20T14:08:04;37.20;40.30
8945;DHT22;4507;40.232;29.132;2023-07-20T14:10:34;37.00;40.70
8945;DHT22;4507;40.232;29.132;2023-07-20T14:13:22;37.00;40.80
8945;DHT22;4507;40.232;29.132;2023-07-20T14:16:08;36.90;40.50
8945;DHT22;4507;40.232;29.132;2023-07-20T14:18:37;36.80;41.20
8945;DHT22;4507;40.232;29.132;2023-07-20T14:21:09;36.70;41.30
8945;DHT22;4507;40.232;29.132;2023-07-20T14:23:38;36.60;41.50
8945;DHT22;4507;40.232;29.132;2023-07-20T14:26:07;36.50;41.70
8945;DHT22;4507;40.232;29.132;2023-07-20T14:28:37;36.50;42.20
8945;DHT22;4507;40.232;29.132;2023-07-20T14:31:06;36.40;42.40
8945;DHT22;4507;40.232;29.132;2023-07-20T14:33:35;36.40;42.50
8945;DHT22;4507;40.232;29.132;2023-07-20T14:36:04;36.30;43.10
8945;DHT22;4507;40.232;29.132;2023-07-20T14:38:35;36.30;43.20
8945;DHT22;4507;40.232;29.132;2023-07-20T14:41:04;36.30;43.30
8945;DHT22;4507;40.232;29.132;2023-07-20T14:43:34;36.30;43.30
8945;DHT22;4507;40.232;29.132;2023-07-20T14:46:03;36.20;43.70
8945;DHT22;4507;40.232;29.132;2023-07-20T14:48:32;36.20;43.60
8945;DHT22;4507;40.232;29.132;2023-07-20T14:51:01;36.20;43.80
8945;DHT22;4507;40.232;29.132;2023-07-20T14:53:32;36.10;44.00
8945;DHT22;4507;40.232;29.132;2023-07-20T14:56:05;36.10;44.20
8945;DHT22;4507;40.232;29.132;2023-07-20T14:58:35;36.00;43.90
8945;DHT22;4507;40.232;29.132;2023-07-20T15:01:04;36.00;44.10
8945;DHT22;4507;40.232;29.132;2023-07-20T15:03:33;36.00;44.40
8945;DHT22;4507;40.232;29.132;2023-07-20T15:06:02;36.00;44.50
8945;DHT22;4507;40.232;29.132;2023-07-20T15:08:31;36.00;45.00
8945;DHT22;4507;40.232;29.132;2023-07-20T15:11:00;36.00;44.80
8945;DHT22;4507;40.232;29.132;2023-07-20T15:13:30;36.00;44.30
8945;DHT22;4507;40.232;29.132;2023-07-20T15:15:59;35.90;44.10
8945;DHT22;4507;40.232;29.132;2023-07-20T15:18:28;35.90;44.00
8945;DHT22;4507;40.232;29.132;2023-07-20T15:21:14;35.90;44.00
8945;DHT22;4507;40.232;29.132;2023-07-20T15:23:43;35.80;44.00
8945;DHT22;4507;40.232;29.132;2023-07-20T15:26:12;35.80;44.00
8945;DHT22;4507;40.232;29.132;2023-07-20T15:28:43;35.70;44.10
8945;DHT22;4507;40.232;29.132;2023-07-20T15:31:12;35.60;44.20
8945;DHT22;4507;40.232;29.132;2023-07-20T15:33:41;35.60;44.20
8945;DHT22;4507;40.232;29.132;2023-07-20T15:36:10;35.60;44.50
8945;DHT22;4507;40.232;29.132;2023-07-20T15:38:39;35.60;44.90
8945;DHT22;4507;40.232;29.132;2023-07-20T15:41:10;35.50;44.90
8945;DHT22;4507;40.232;29.132;2023-07-20T15:43:39;35.50;45.40
8945;DHT22;4507;40.232;29.132;2023-07-20T15:49:12;35.40;45.60
8945;DHT22;4507;40.232;29.132;2023-07-20T15:51:41;35.30;45.80
8945;DHT22;4507;40.232;29.132;2023-07-20T15:54:14;35.30;45.90
8945;DHT22;4507;40.232;29.132;2023-07-20T15:56:43;35.20;46.20
8945;DHT22;4507;40.232;29.132;2023-07-20T15:59:14;35.10;46.30
8945;DHT22;4507;40.232;29.132;2023-07-20T16:01:44;35.10;46.70
8945;DHT22;4507;40.232;29.132;2023-07-20T16:04:14;35.00;46.80
8945;DHT22;4507;40.232;29.132;2023-07-20T16:06:43;35.00;47.10
8945;DHT22;4507;40.232;29.132;2023-07-20T16:09:12;34.90;47.60
8945;DHT22;4507;40.232;29.132;2023-07-20T16:11:42;34.80;48.00
8945;DHT22;4507;40.232;29.132;2023-07-20T16:14:12;34.80;48.20
8945;DHT22;4507;40.232;29.132;2023-07-20T16:17:01;34.70;48.50
8945;DHT22;4507;40.232;29.132;2023-07-20T16:19:32;34.60;49.00
8945;DHT22;4507;40.232;29.132;2023-07-20T16:22:01;34.50;49.60